createdAt,value
2017-10-27T00:00:06.888Z,11.20
2017-10-27T00:02:33.796Z,11.10
2017-10-27T00:05:00.009Z,11.10
2017-10-27T00:07:26.181Z,11.10
2017-10-27T00:09:52.390Z,11.00
2017-10-27T00:12:19.354Z,11.00
2017-10-27T00:14:45.545Z,11.00
2017-10-27T00:17:11.885Z,11.00
2017-10-27T00:19:38.191Z,11.00
2017-10-27T00:22:04.401Z,11.00
2017-10-27T00:24:30.613Z,11.00
2017-10-27T00:26:57.551Z,10.90
2017-10-27T00:29:23.761Z,11.00
2017-10-27T00:31:49.937Z,10.90
2017-10-27T00:34:16.208Z,10.90
2017-10-27T00:36:43.288Z,10.90
2017-10-27T00:39:10.284Z,10.90
2017-10-27T00:41:36.486Z,10.90
2017-10-27T00:44:03.443Z,10.90
2017-10-27T00:46:30.383Z,11.00
2017-10-27T00:48:57.353Z,11.00
2017-10-27T00:51:24.288Z,11.00
2017-10-27T00:53:50.519Z,11.00
2017-10-27T00:56:16.818Z,11.10
2017-10-27T00:58:43.897Z,11.10
2017-10-27T01:01:10.154Z,11.10
2017-10-27T01:03:36.412Z,11.20
2017-10-27T01:06:02.595Z,11.20
2017-10-27T01:08:29.525Z,11.20
2017-10-27T01:10:55.728Z,11.10
2017-10-27T01:13:21.944Z,11.20
2017-10-27T01:15:48.916Z,11.10
2017-10-27T01:18:15.357Z,11.10
2017-10-27T01:20:41.745Z,11.10
2017-10-27T01:23:07.986Z,11.10
2017-10-27T01:25:34.183Z,11.00
2017-10-27T01:28:00.397Z,11.00
2017-10-27T01:30:26.580Z,11.00
2017-10-27T01:32:52.781Z,11.00
2017-10-27T01:35:18.964Z,11.00
2017-10-27T01:37:45.283Z,11.00
2017-10-27T01:40:11.509Z,11.00
2017-10-27T01:42:37.700Z,11.00
2017-10-27T01:45:03.941Z,10.90
2017-10-27T01:47:30.191Z,10.90
2017-10-27T01:49:56.430Z,10.90
2017-10-27T01:52:22.633Z,11.00
2017-10-27T01:54:48.847Z,10.90
2017-10-27T01:57:15.056Z,10.80
2017-10-27T01:59:41.474Z,10.90
2017-10-27T02:02:07.720Z,10.80
2017-10-27T02:04:33.944Z,10.90
2017-10-27T02:07:00.130Z,10.90
2017-10-27T02:09:27.095Z,10.90
2017-10-27T02:11:53.274Z,10.90
2017-10-27T02:14:19.491Z,11.00
2017-10-27T02:16:45.767Z,11.00
2017-10-27T02:19:12.834Z,11.00
2017-10-27T02:21:39.158Z,11.00
2017-10-27T02:24:05.442Z,11.00
2017-10-27T02:26:32.375Z,11.00
2017-10-27T02:28:58.599Z,10.90
2017-10-27T02:31:24.809Z,11.00
2017-10-27T02:33:51.074Z,10.90
2017-10-27T02:36:17.292Z,11.00
2017-10-27T02:38:43.618Z,11.00
2017-10-27T02:41:09.867Z,11.00
2017-10-27T02:43:36.066Z,11.00
2017-10-27T02:46:02.329Z,11.00
2017-10-27T02:48:29.377Z,11.10
2017-10-27T02:50:55.580Z,11.10
2017-10-27T02:53:21.858Z,11.00
2017-10-27T02:55:48.203Z,11.10
2017-10-27T02:58:15.413Z,11.00
2017-10-27T03:00:41.644Z,11.00
2017-10-27T03:03:08.692Z,11.00
2017-10-27T03:05:35.726Z,11.00
2017-10-27T03:08:01.924Z,11.00
2017-10-27T03:10:29.014Z,11.00
2017-10-27T03:12:55.192Z,11.00
2017-10-27T03:15:21.441Z,11.10
2017-10-27T03:17:48.425Z,11.00
2017-10-27T03:20:14.681Z,11.00
2017-10-27T03:22:40.935Z,10.90
2017-10-27T03:25:07.244Z,11.00
2017-10-27T03:27:34.362Z,11.00
2017-10-27T03:30:00.748Z,10.90
2017-10-27T03:32:27.681Z,11.00
2017-10-27T03:34:53.877Z,11.00
2017-10-27T03:37:20.160Z,10.90
2017-10-27T03:39:46.412Z,10.90
2017-10-27T03:42:12.713Z,11.00
2017-10-27T03:44:38.947Z,11.00
2017-10-27T03:47:05.168Z,10.90
2017-10-27T03:49:32.124Z,10.90
2017-10-27T03:51:59.108Z,11.00
2017-10-27T03:54:25.337Z,10.90
2017-10-27T03:56:51.591Z,10.90
2017-10-27T03:59:17.946Z,10.90
2017-10-27T04:01:44.239Z,10.90
2017-10-27T04:04:10.444Z,10.90
2017-10-27T04:06:36.680Z,10.90
2017-10-27T04:09:02.981Z,10.90
2017-10-27T04:11:30.007Z,10.90
2017-10-27T04:13:56.229Z,10.90
2017-10-27T04:16:22.578Z,10.90
2017-10-27T04:18:48.818Z,10.90
2017-10-27T04:21:15.012Z,10.90
2017-10-27T04:23:41.989Z,10.80
2017-10-27T04:26:08.996Z,10.90
2017-10-27T04:28:35.339Z,10.90
2017-10-27T04:31:01.561Z,10.80
2017-10-27T04:33:27.845Z,10.90
2017-10-27T04:35:54.056Z,10.80
2017-10-27T04:38:20.317Z,10.80
2017-10-27T04:40:46.650Z,10.80
2017-10-27T04:43:14.994Z,10.80
2017-10-27T04:45:41.977Z,10.80
2017-10-27T04:48:08.252Z,10.80
2017-10-27T04:50:34.535Z,10.90
2017-10-27T04:53:01.460Z,10.90
2017-10-27T04:55:27.953Z,10.80
2017-10-27T04:57:54.188Z,10.80
2017-10-27T05:00:21.291Z,10.90
2017-10-27T05:02:47.507Z,10.90
2017-10-27T05:05:13.694Z,10.90
2017-10-27T05:07:40.103Z,10.90
2017-10-27T05:10:06.280Z,10.90
2017-10-27T05:12:32.514Z,10.90
2017-10-27T05:14:58.696Z,10.90
2017-10-27T05:17:33.811Z,10.90
2017-10-27T05:20:05.995Z,10.80
2017-10-27T05:22:38.488Z,10.80
2017-10-27T05:25:04.915Z,10.80
2017-10-27T05:27:31.124Z,10.80
2017-10-27T05:29:58.118Z,10.80
2017-10-27T05:32:24.399Z,10.80
2017-10-27T05:34:50.665Z,10.80
2017-10-27T05:37:17.644Z,10.80
2017-10-27T05:39:43.902Z,10.80
2017-10-27T05:42:10.216Z,10.80
2017-10-27T05:44:37.164Z,10.80
2017-10-27T05:47:03.577Z,10.80
2017-10-27T05:49:29.829Z,10.60
2017-10-27T05:51:56.096Z,10.60
2017-10-27T05:54:23.326Z,10.60
2017-10-27T05:56:49.530Z,10.50
2017-10-27T05:59:15.807Z,10.40
2017-10-27T06:01:41.987Z,10.40
2017-10-27T06:04:08.261Z,10.40
2017-10-27T06:06:34.455Z,10.30
2017-10-27T06:09:01.461Z,10.30
2017-10-27T06:11:27.709Z,10.30
2017-10-27T06:13:53.981Z,10.30
2017-10-27T06:16:20.200Z,10.20
2017-10-27T06:18:46.423Z,10.20
2017-10-27T06:21:12.616Z,10.10
2017-10-27T06:23:38.807Z,10.00
2017-10-27T06:26:05.087Z,10.00
2017-10-27T06:28:31.347Z,10.00
2017-10-27T06:30:57.593Z,9.90
2017-10-27T06:33:24.056Z,9.90
2017-10-27T06:35:50.305Z,9.90
2017-10-27T06:38:16.526Z,9.90
2017-10-27T06:40:42.746Z,9.90
2017-10-27T06:43:09.100Z,9.90
2017-10-27T06:45:35.308Z,9.90
2017-10-27T06:48:01.661Z,9.80
2017-10-27T06:50:27.876Z,9.80
2017-10-27T06:52:55.712Z,9.80
2017-10-27T06:55:22.126Z,9.80
2017-10-27T06:57:48.328Z,9.90
2017-10-27T07:00:14.572Z,9.90
2017-10-27T07:02:40.811Z,9.90
2017-10-27T07:05:07.211Z,9.90
2017-10-27T07:07:33.472Z,9.90
2017-10-27T07:09:59.672Z,9.90
2017-10-27T07:12:26.006Z,9.90
2017-10-27T07:17:51.606Z,9.90
2017-10-27T07:20:17.837Z,10.00
2017-10-27T07:22:44.062Z,10.00
2017-10-27T07:25:10.294Z,10.00
2017-10-27T07:27:36.751Z,10.10
2017-10-27T07:30:03.757Z,10.20
2017-10-27T07:32:29.994Z,10.20
2017-10-27T07:34:56.229Z,10.30
2017-10-27T07:37:22.630Z,10.40
2017-10-27T07:39:48.859Z,10.40
2017-10-27T07:42:15.109Z,10.30
2017-10-27T07:44:41.342Z,10.20
2017-10-27T07:47:07.576Z,10.30
2017-10-27T07:49:33.818Z,10.30
2017-10-27T07:52:00.797Z,10.30
2017-10-27T07:54:27.036Z,10.30
2017-10-27T07:56:53.262Z,10.40
2017-10-27T07:59:19.517Z,10.50
2017-10-27T08:01:45.743Z,10.50
2017-10-27T08:04:11.982Z,10.50
2017-10-27T08:06:38.198Z,10.50
2017-10-27T08:09:04.429Z,10.60
2017-10-27T08:11:30.673Z,10.60
2017-10-27T08:13:58.394Z,10.70
2017-10-27T08:16:24.610Z,10.70
2017-10-27T08:18:50.851Z,10.80
2017-10-27T08:21:17.090Z,10.90
2017-10-27T08:23:43.366Z,11.00
2017-10-27T08:26:09.581Z,11.00
2017-10-27T08:28:35.814Z,11.00
2017-10-27T08:31:02.058Z,11.00
2017-10-27T08:33:29.072Z,11.00
2017-10-27T08:35:55.301Z,11.00
2017-10-27T08:38:21.522Z,11.10
2017-10-27T08:40:47.778Z,11.20
2017-10-27T08:43:14.744Z,11.50
2017-10-27T08:45:41.724Z,11.30
2017-10-27T08:48:07.978Z,11.30
2017-10-27T08:50:34.237Z,11.50
2017-10-27T08:53:00.440Z,11.40
2017-10-27T08:55:26.676Z,11.40
2017-10-27T08:57:52.878Z,11.60
2017-10-27T09:00:19.109Z,11.60
2017-10-27T09:02:45.325Z,11.60
2017-10-27T09:05:11.581Z,11.60
2017-10-27T09:07:37.805Z,11.60
2017-10-27T09:10:04.054Z,11.60
2017-10-27T09:12:30.286Z,11.90
2017-10-27T09:14:56.525Z,12.10
2017-10-27T09:17:23.468Z,12.00
2017-10-27T09:19:49.689Z,12.00
2017-10-27T09:22:15.882Z,12.20
2017-10-27T09:24:42.118Z,12.30
2017-10-27T09:27:08.324Z,12.10
2017-10-27T09:29:34.544Z,12.00
2017-10-27T09:32:00.754Z,11.90
2017-10-27T09:34:27.740Z,12.10
2017-10-27T09:36:53.946Z,12.10
2017-10-27T09:39:20.194Z,12.20
2017-10-27T09:41:46.413Z,12.50
2017-10-27T09:44:12.657Z,12.70
2017-10-27T09:46:38.909Z,12.70
2017-10-27T09:49:05.130Z,12.60
2017-10-27T09:51:31.335Z,12.80
2017-10-27T09:53:57.562Z,12.80
2017-10-27T09:56:23.773Z,12.70
2017-10-27T09:58:50.125Z,12.70
2017-10-27T10:01:16.333Z,12.60
2017-10-27T10:03:42.612Z,12.70
2017-10-27T10:06:08.804Z,12.60
2017-10-27T10:08:35.079Z,12.80
2017-10-27T10:11:01.442Z,12.60
2017-10-27T10:13:27.670Z,12.70
2017-10-27T10:15:53.882Z,12.80
2017-10-27T10:18:20.158Z,12.90
2017-10-27T10:20:46.392Z,12.90
2017-10-27T10:23:12.611Z,12.80
2017-10-27T10:25:38.862Z,12.80
2017-10-27T10:28:05.086Z,12.80
2017-10-27T10:30:31.320Z,12.90
2017-10-27T10:32:57.589Z,12.90
2017-10-27T10:35:23.845Z,12.90
2017-10-27T10:37:50.070Z,12.50
2017-10-27T10:40:16.343Z,12.40
2017-10-27T10:42:42.553Z,12.40
2017-10-27T10:45:08.841Z,12.60
2017-10-27T10:47:35.071Z,12.60
2017-10-27T10:50:01.309Z,12.60
2017-10-27T10:52:27.542Z,12.60
2017-10-27T10:54:53.787Z,12.70
2017-10-27T10:57:20.025Z,12.60
2017-10-27T10:59:46.258Z,12.50
2017-10-27T11:02:12.574Z,12.50
2017-10-27T11:04:38.814Z,12.50
2017-10-27T11:07:06.606Z,12.50
2017-10-27T11:09:33.603Z,12.50
2017-10-27T11:11:59.868Z,12.50
2017-10-27T11:14:26.917Z,12.30
2017-10-27T11:16:53.165Z,12.30
2017-10-27T11:19:20.208Z,12.50
2017-10-27T11:21:47.207Z,12.60
2017-10-27T11:24:13.424Z,12.50
2017-10-27T11:26:39.686Z,12.60
2017-10-27T11:29:05.928Z,12.60
2017-10-27T11:31:32.165Z,12.40
2017-10-27T11:33:59.122Z,12.30
2017-10-27T11:36:26.094Z,12.30
2017-10-27T11:38:52.345Z,12.30
2017-10-27T11:41:18.621Z,12.20
2017-10-27T11:43:45.589Z,12.30
2017-10-27T11:46:11.814Z,12.30
2017-10-27T11:48:38.025Z,12.30
2017-10-27T11:51:05.002Z,12.20
2017-10-27T11:53:31.654Z,12.10
2017-10-27T11:55:57.887Z,11.80
2017-10-27T11:58:24.114Z,11.70
2017-10-27T12:00:50.357Z,11.80
2017-10-27T12:03:16.622Z,11.70
2017-10-27T12:05:43.605Z,12.30
2017-10-27T12:08:09.839Z,12.20
2017-10-27T12:10:36.082Z,12.30
2017-10-27T12:13:02.303Z,12.30
2017-10-27T12:15:28.551Z,12.30
2017-10-27T12:17:54.789Z,12.40
2017-10-27T12:20:21.035Z,12.40
2017-10-27T12:22:47.982Z,12.30
2017-10-27T12:25:14.986Z,12.20
2017-10-27T12:27:41.198Z,12.20
2017-10-27T12:30:07.433Z,12.30
2017-10-27T12:32:33.638Z,12.30
2017-10-27T12:34:59.844Z,12.20
2017-10-27T12:37:26.836Z,13.60
2017-10-27T12:39:53.085Z,13.60
2017-10-27T12:42:19.317Z,13.90
2017-10-27T12:44:45.554Z,15.60
2017-10-27T12:47:11.798Z,17.10
2017-10-27T12:49:38.758Z,17.40
2017-10-27T12:52:05.757Z,18.20
2017-10-27T12:54:31.974Z,18.20
2017-10-27T12:56:58.242Z,18.60
2017-10-27T12:59:25.213Z,19.00
2017-10-27T13:01:51.461Z,18.90
2017-10-27T13:04:17.678Z,19.10
2017-10-27T13:06:43.906Z,18.80
2017-10-27T13:09:10.119Z,19.40
2017-10-27T13:11:37.096Z,18.30
2017-10-27T13:14:03.319Z,18.20
2017-10-27T13:16:29.574Z,18.00
2017-10-27T13:18:55.802Z,17.10
2017-10-27T13:21:22.038Z,17.00
2017-10-27T13:23:48.251Z,16.90
2017-10-27T13:26:14.477Z,17.10
2017-10-27T13:28:40.702Z,17.10
2017-10-27T13:31:06.914Z,17.80
2017-10-27T13:33:33.146Z,18.00
2017-10-27T13:35:59.367Z,18.20
2017-10-27T13:38:25.617Z,18.60
2017-10-27T13:40:51.894Z,17.90
2017-10-27T13:43:18.875Z,18.10
2017-10-27T13:45:45.098Z,18.10
2017-10-27T13:48:11.335Z,17.20
2017-10-27T13:50:37.558Z,17.80
2017-10-27T13:53:03.786Z,17.50
2017-10-27T13:55:30.029Z,17.80
2017-10-27T13:57:56.262Z,18.20
2017-10-27T14:00:22.457Z,18.70
2017-10-27T14:02:48.725Z,18.50
2017-10-27T14:05:14.969Z,18.40
2017-10-27T14:07:41.214Z,18.10
2017-10-27T14:10:07.409Z,18.80
2017-10-27T14:12:33.645Z,18.60
2017-10-27T14:14:59.841Z,18.40
2017-10-27T14:17:26.049Z,17.90
2017-10-27T14:19:52.326Z,17.40
2017-10-27T14:22:18.657Z,16.90
2017-10-27T14:24:44.873Z,16.80
2017-10-27T14:27:11.091Z,17.30
2017-10-27T14:29:37.316Z,17.80
2017-10-27T14:32:03.526Z,18.10
2017-10-27T14:34:29.762Z,18.00
2017-10-27T14:36:55.973Z,17.50
2017-10-27T14:39:22.217Z,17.00
2017-10-27T14:41:48.438Z,16.60
2017-10-27T14:44:14.681Z,16.20
2017-10-27T14:46:40.884Z,16.60
2017-10-27T14:49:07.857Z,17.30
2017-10-27T14:54:26.942Z,16.60
2017-10-27T14:56:53.454Z,16.30
2017-10-27T14:59:19.690Z,15.20
2017-10-27T15:01:45.898Z,14.80
2017-10-27T15:04:12.965Z,14.60
2017-10-27T15:06:39.170Z,14.60
2017-10-27T15:09:06.151Z,14.40
2017-10-27T15:11:32.363Z,14.40
2017-10-27T15:13:58.590Z,14.20
2017-10-27T15:16:24.812Z,14.00
2017-10-27T15:18:51.800Z,13.60
2017-10-27T15:21:18.018Z,13.60
2017-10-27T15:23:44.262Z,13.30
2017-10-27T15:26:10.496Z,13.30
2017-10-27T15:28:36.766Z,13.10
2017-10-27T15:31:03.721Z,12.90
2017-10-27T15:33:29.959Z,12.90
2017-10-27T15:35:56.178Z,12.90
2017-10-27T15:38:22.416Z,12.80
2017-10-27T15:40:48.677Z,12.70
2017-10-27T15:43:14.887Z,12.70
2017-10-27T15:45:41.097Z,12.60
2017-10-27T15:48:07.306Z,12.50
2017-10-27T15:50:34.278Z,12.30
2017-10-27T15:53:00.495Z,12.30
2017-10-27T15:55:27.035Z,12.20
2017-10-27T15:57:53.986Z,12.10
2017-10-27T16:00:20.205Z,12.10
2017-10-27T16:02:46.401Z,12.00
2017-10-27T16:05:12.590Z,11.90
2017-10-27T16:07:38.819Z,11.90
2017-10-27T16:10:05.014Z,11.80
2017-10-27T16:12:31.217Z,11.70
2017-10-27T16:14:58.142Z,11.60
2017-10-27T16:17:24.357Z,11.50
2017-10-27T16:19:52.113Z,11.50
2017-10-27T16:22:18.334Z,11.50
2017-10-27T16:24:44.533Z,11.40
2017-10-27T16:27:10.741Z,11.40
2017-10-27T16:29:37.665Z,11.30
2017-10-27T16:32:03.885Z,11.20
2017-10-27T16:34:30.070Z,11.30
2017-10-27T16:36:56.306Z,11.30
2017-10-27T16:39:22.482Z,11.20
2017-10-27T16:41:48.725Z,11.10
2017-10-27T16:44:15.649Z,11.10
2017-10-27T16:46:41.845Z,11.10
2017-10-27T16:49:08.085Z,11.10
2017-10-27T16:51:34.289Z,11.00
2017-10-27T16:54:00.496Z,10.90
2017-10-27T16:56:26.697Z,11.00
2017-10-27T16:58:52.905Z,10.90
2017-10-27T17:01:19.105Z,10.90
2017-10-27T17:03:45.341Z,10.80
2017-10-27T17:06:11.582Z,10.70
2017-10-27T17:08:37.821Z,10.70
2017-10-27T17:11:04.738Z,10.70
2017-10-27T17:13:30.982Z,10.60
2017-10-27T17:15:57.201Z,10.60
2017-10-27T17:18:23.446Z,10.50
2017-10-27T17:20:49.671Z,10.50
2017-10-27T17:23:15.930Z,10.50
2017-10-27T17:25:42.898Z,10.50
2017-10-27T17:28:09.153Z,10.50
2017-10-27T17:30:35.366Z,10.50
2017-10-27T17:33:01.610Z,10.50
2017-10-27T17:35:27.836Z,10.50
2017-10-27T17:37:54.089Z,10.60
2017-10-27T17:40:20.338Z,10.60
2017-10-27T17:42:46.573Z,10.70
2017-10-27T17:45:13.558Z,10.80
2017-10-27T17:47:39.791Z,10.70
2017-10-27T17:50:06.002Z,10.70
2017-10-27T17:52:32.226Z,10.80
2017-10-27T17:54:58.457Z,10.80
2017-10-27T17:57:24.681Z,10.80
2017-10-27T17:59:50.903Z,10.80
2017-10-27T18:02:17.113Z,10.80
2017-10-27T18:04:44.086Z,10.70
2017-10-27T18:07:10.281Z,10.70
2017-10-27T18:09:36.514Z,10.70
2017-10-27T18:12:03.477Z,10.60
2017-10-27T18:14:29.721Z,10.60
2017-10-27T18:16:55.945Z,10.60
2017-10-27T18:19:22.214Z,10.60
2017-10-27T18:21:48.433Z,10.70
2017-10-27T18:24:14.674Z,10.70
2017-10-27T18:26:40.933Z,10.70
2017-10-27T18:29:07.928Z,10.80
2017-10-27T18:31:34.170Z,10.80
2017-10-27T18:34:00.403Z,10.80
2017-10-27T18:36:26.658Z,10.80
2017-10-27T18:38:52.882Z,10.80
2017-10-27T18:41:19.138Z,10.80
2017-10-27T18:43:45.335Z,10.70
2017-10-27T18:46:11.594Z,10.70
2017-10-27T18:48:38.542Z,10.60
2017-10-27T18:51:06.585Z,10.60
2017-10-27T18:53:32.826Z,10.50
2017-10-27T18:55:59.795Z,10.60
2017-10-27T18:58:25.998Z,10.50
2017-10-27T19:00:52.971Z,10.40
2017-10-27T19:03:19.169Z,10.40
2017-10-27T19:05:46.143Z,10.30
2017-10-27T19:08:12.341Z,10.30
2017-10-27T19:10:39.320Z,10.20
2017-10-27T19:13:05.522Z,10.20
2017-10-27T19:15:32.489Z,10.10
2017-10-27T19:17:58.694Z,10.10
2017-10-27T19:20:25.918Z,10.20
2017-10-27T19:22:52.150Z,10.20
2017-10-27T19:25:18.388Z,10.20
2017-10-27T19:27:44.649Z,10.20
2017-10-27T19:30:10.891Z,10.20
2017-10-27T19:32:37.105Z,10.20
2017-10-27T19:35:03.325Z,10.30
2017-10-27T19:37:30.296Z,10.30
2017-10-27T19:39:56.490Z,10.30
2017-10-27T19:42:23.493Z,10.30
2017-10-27T19:44:49.698Z,10.20
2017-10-27T19:47:15.935Z,10.20
2017-10-27T19:49:42.154Z,10.20
2017-10-27T19:52:08.431Z,10.20
2017-10-27T19:54:34.642Z,10.20
2017-10-27T19:57:00.908Z,10.20
2017-10-27T19:59:27.853Z,10.10
2017-10-27T20:01:54.812Z,10.10
2017-10-27T20:04:21.035Z,10.10
2017-10-27T20:06:47.257Z,10.10
2017-10-27T20:09:14.201Z,10.00
2017-10-27T20:11:41.165Z,10.00
2017-10-27T20:14:07.381Z,9.90
2017-10-27T20:16:33.592Z,9.90
2017-10-27T20:19:00.587Z,9.80
2017-10-27T20:21:26.795Z,9.80
2017-10-27T20:23:53.033Z,9.80
2017-10-27T20:26:19.234Z,9.80
2017-10-27T20:28:45.457Z,9.80
2017-10-27T20:31:12.406Z,9.70
2017-10-27T20:33:39.362Z,9.60
2017-10-27T20:36:05.559Z,9.60
2017-10-27T20:38:32.549Z,9.60
2017-10-27T20:40:58.745Z,9.60
2017-10-27T20:43:24.993Z,9.50
2017-10-27T20:45:51.208Z,9.50
2017-10-27T20:48:18.213Z,9.50
2017-10-27T20:50:44.435Z,9.50
2017-10-27T20:53:10.661Z,9.60
2017-10-27T20:55:36.898Z,9.60
2017-10-27T20:58:03.117Z,9.60
2017-10-27T21:00:29.394Z,9.60
2017-10-27T21:02:56.354Z,9.60
2017-10-27T21:05:22.553Z,9.60
2017-10-27T21:07:48.776Z,9.60
2017-10-27T21:10:15.057Z,9.50
2017-10-27T21:12:41.301Z,9.60
2017-10-27T21:15:07.649Z,9.60
2017-10-27T21:17:33.877Z,9.60
2017-10-27T21:20:00.079Z,9.60
2017-10-27T21:22:26.318Z,9.60
2017-10-27T21:24:52.654Z,9.60
2017-10-27T21:27:18.901Z,9.60
2017-10-27T21:29:45.102Z,9.50
2017-10-27T21:32:11.336Z,9.50
2017-10-27T21:34:37.551Z,9.60
2017-10-27T21:37:04.538Z,9.60
2017-10-27T21:39:30.742Z,9.60
2017-10-27T21:41:57.029Z,9.60
2017-10-27T21:44:23.273Z,9.60
2017-10-27T21:46:49.530Z,9.70
2017-10-27T21:49:15.732Z,9.70
2017-10-27T21:51:41.982Z,9.70
2017-10-27T21:54:08.202Z,9.70
2017-10-27T21:56:34.444Z,9.70
2017-10-27T21:59:00.654Z,9.70
2017-10-27T22:01:26.902Z,9.70
2017-10-27T22:03:53.120Z,9.70
2017-10-27T22:06:19.349Z,9.70
2017-10-27T22:08:45.562Z,9.70
2017-10-27T22:11:11.817Z,9.70
2017-10-27T22:13:38.037Z,9.70
2017-10-27T22:16:04.274Z,9.70
2017-10-27T22:18:30.524Z,9.70
2017-10-27T22:20:56.734Z,9.70
2017-10-27T22:23:22.969Z,9.70
2017-10-27T22:25:49.205Z,9.70
2017-10-27T22:28:15.413Z,9.70
2017-10-27T22:30:41.637Z,9.60
2017-10-27T22:33:07.870Z,9.60
2017-10-27T22:35:34.104Z,9.60
2017-10-27T22:38:00.338Z,9.70
2017-10-27T22:40:26.550Z,9.70
2017-10-27T22:42:52.899Z,9.70
2017-10-27T22:45:19.118Z,9.70
2017-10-27T22:47:45.367Z,9.70
2017-10-27T22:50:11.578Z,9.70
2017-10-27T22:52:37.798Z,9.60
2017-10-27T22:55:03.997Z,9.50
2017-10-27T22:57:30.222Z,9.60
2017-10-27T22:59:56.430Z,9.50
2017-10-27T23:02:22.664Z,9.60
2017-10-27T23:04:48.870Z,9.50
2017-10-27T23:07:15.867Z,9.50
2017-10-27T23:09:42.065Z,9.50
2017-10-27T23:12:08.322Z,9.50
2017-10-27T23:14:34.532Z,9.50
2017-10-27T23:17:00.758Z,9.40
2017-10-27T23:19:26.959Z,9.40
2017-10-27T23:21:53.176Z,9.40
2017-10-27T23:24:19.392Z,9.40
2017-10-27T23:26:45.612Z,9.30
2017-10-27T23:29:12.194Z,9.30
2017-10-27T23:31:38.447Z,9.30
2017-10-27T23:34:04.832Z,9.30
2017-10-27T23:36:31.803Z,9.30
2017-10-27T23:38:57.997Z,9.30
2017-10-27T23:41:24.469Z,9.30
2017-10-27T23:43:50.703Z,9.30
2017-10-27T23:46:16.914Z,9.30
2017-10-27T23:48:43.882Z,9.30
2017-10-27T23:51:10.077Z,9.30
2017-10-27T23:53:37.191Z,9.30
2017-10-27T23:56:03.652Z,9.30
2017-10-27T23:58:30.033Z,9.40
